Time;durP1;ratioP1;P1;durP2;ratioP2;P2;SDS_P1;SDS_P2;PMS_P1;PMS_P2;Temp;Humidity;BMP_temperature;BMP_pressure;BME280_temperature;BME280_humidity;BME280_pressure;Samples;Min_cycle;Max_cycle;Signal;HPM_P1;HPM_P2
2023/06/17 00:01:05;;;;;;;8.60;5.45;;;;;;;;;;5067332;28;20292;-53
2023/06/17 00:03:33;;;;;;;6.35;5.85;;;;;;;;;;5064616;28;20235;-53
2023/06/17 00:06:00;;;;;;;6.57;5.95;;;;;;;;;;5068771;28;20238;-53
2023/06/17 00:08:26;;;;;;;7.55;5.90;;;;;;;;;;5063219;28;20238;-52
2023/06/17 00:10:52;;;;;;;6.50;6.00;;;;;;;;;;5068417;28;20235;-54
2023/06/17 00:13:20;;;;;;;6.45;5.95;;;;;;;;;;5060899;28;20241;-53
2023/06/17 00:15:50;;;;;;;7.18;6.45;;;;;;;;;;5060883;28;20232;-52
2023/06/17 00:18:19;;;;;;;6.65;6.05;;;;;;;;;;5062983;28;20644;-52
2023/06/17 00:20:47;;;;;;;6.53;5.72;;;;;;;;;;5064778;28;20320;-53
2023/06/17 00:23:13;;;;;;;6.65;5.90;;;;;;;;;;5066488;28;20329;-52
2023/06/17 00:25:39;;;;;;;6.13;5.57;;;;;;;;;;5068431;28;20241;-56
2023/06/17 00:28:06;;;;;;;5.68;5.18;;;;;;;;;;5069873;28;20257;-53
2023/06/17 00:30:32;;;;;;;6.78;6.05;;;;;;;;;;5066605;28;20325;-53
2023/06/17 00:32:59;;;;;;;5.85;5.35;;;;;;;;;;5063129;28;20226;-52
2023/06/17 00:35:25;;;;;;;6.13;5.32;;;;;;;;;;5063787;28;20322;-53
2023/06/17 00:37:53;;;;;;;6.78;6.18;;;;;;;;;;5072684;28;20245;-53
2023/06/17 00:40:19;;;;;;;6.40;5.90;;;;;;;;;;5078725;28;20330;-55
2023/06/17 00:42:45;;;;;;;7.32;5.85;;;;;;;;;;5077071;28;20235;-53
2023/06/17 00:45:12;;;;;;;6.20;5.70;;;;;;;;;;5087461;28;20314;-54
2023/06/17 00:47:38;;;;;;;5.55;5.15;;;;;;;;;;5067488;28;20313;-53
2023/06/17 00:50:07;;;;;;;7.15;6.55;;;;;;;;;;5061787;28;20249;-53
2023/06/17 00:52:34;;;;;;;7.30;6.65;;;;;;;;;;5064961;28;20247;-53
2023/06/17 00:55:01;;;;;;;7.78;6.18;;;;;;;;;;5062102;28;20245;-53
2023/06/17 00:57:28;;;;;;;6.25;5.75;;;;;;;;;;5062553;28;20231;-54
2023/06/17 00:59:55;;;;;;;6.10;5.65;;;;;;;;;;5059126;28;20233;-53
2023/06/17 01:02:25;;;;;;;6.45;5.85;;;;;;;;;;5061980;28;20746;-52
2023/06/17 01:04:52;;;;;;;6.10;5.60;;;;;;;;;;5059515;28;20315;-52
2023/06/17 01:07:23;;;;;;;6.38;5.82;;;;;;;;;;5060820;28;20227;-52
2023/06/17 01:09:52;;;;;;;6.53;5.93;;;;;;;;;;5062805;28;20223;-53
2023/06/17 01:12:20;;;;;;;7.28;5.93;;;;;;;;;;5063554;28;20326;-53
2023/06/17 01:14:49;;;;;;;6.57;6.07;;;;;;;;;;5053857;28;20235;-53
2023/06/17 01:17:17;;;;;;;11.68;6.55;;;;;;;;;;5064928;28;20227;-53
2023/06/17 01:19:48;;;;;;;6.93;6.32;;;;;;;;;;5067758;28;20715;-54
2023/06/17 01:22:15;;;;;;;7.57;6.80;;;;;;;;;;5060639;28;20246;-54
2023/06/17 01:24:45;;;;;;;9.98;6.88;;;;;;;;;;5063121;28;20701;-53
2023/06/17 01:27:11;;;;;;;5.93;5.53;;;;;;;;;;5063908;28;20247;-54
2023/06/17 01:29:38;;;;;;;6.97;6.40;;;;;;;;;;5064139;28;20708;-53
2023/06/17 01:32:06;;;;;;;6.85;6.25;;;;;;;;;;5059830;28;20308;-55
2023/06/17 01:34:37;;;;;;;6.55;6.05;;;;;;;;;;5060879;28;20601;-53
2023/06/17 01:37:05;;;;;;;6.78;6.10;;;;;;;;;;5065075;28;20227;-53
2023/06/17 01:39:33;;;;;;;7.50;6.90;;;;;;;;;;5059674;28;20448;-53
2023/06/17 01:42:01;;;;;;;6.95;6.35;;;;;;;;;;5059288;28;20242;-53
2023/06/17 01:44:27;;;;;;;6.90;6.22;;;;;;;;;;5062240;28;20234;-53
2023/06/17 01:46:54;;;;;;;7.18;6.57;;;;;;;;;;5064905;28;20330;-54
2023/06/17 01:49:21;;;;;;;6.43;5.82;;;;;;;;;;5062519;28;20300;-53
2023/06/17 01:51:47;;;;;;;7.30;6.70;;;;;;;;;;5063072;28;20245;-53
2023/06/17 01:54:14;;;;;;;6.10;5.60;;;;;;;;;;5068783;28;20237;-52
2023/06/17 01:56:40;;;;;;;6.25;5.72;;;;;;;;;;5066848;28;20239;-53
2023/06/17 01:59:08;;;;;;;6.80;6.13;;;;;;;;;;5066827;28;20704;-53
2023/06/17 02:01:34;;;;;;;7.68;6.97;;;;;;;;;;5065715;28;20321;-53
2023/06/17 02:04:01;;;;;;;7.15;6.63;;;;;;;;;;5063651;28;20239;-53
2023/06/17 02:06:27;;;;;;;7.45;6.85;;;;;;;;;;5066892;28;20239;-53
2023/06/17 02:08:54;;;;;;;6.57;6.07;;;;;;;;;;5068744;28;20281;-54
2023/06/17 02:11:20;;;;;;;7.85;6.50;;;;;;;;;;5067576;28;20254;-53
2023/06/17 02:13:47;;;;;;;6.90;6.25;;;;;;;;;;5064313;28;20235;-53
2023/06/17 02:16:14;;;;;;;8.88;7.45;;;;;;;;;;5060872;28;20720;-54
2023/06/17 02:18:42;;;;;;;7.38;6.70;;;;;;;;;;5060916;28;20231;-53
2023/06/17 02:21:08;;;;;;;6.82;6.30;;;;;;;;;;5066681;28;20239;-54
2023/06/17 02:23:35;;;;;;;7.50;6.80;;;;;;;;;;5068348;28;20246;-54
2023/06/17 02:26:02;;;;;;;6.65;6.13;;;;;;;;;;5069001;28;20231;-53
2023/06/17 02:28:28;;;;;;;7.38;6.55;;;;;;;;;;5066096;28;20310;-54
2023/06/17 02:30:55;;;;;;;6.90;6.28;;;;;;;;;;5065726;28;20663;-53
2023/06/17 02:33:22;;;;;;;7.68;7.07;;;;;;;;;;5065840;28;20234;-53
2023/06/17 02:35:49;;;;;;;7.28;6.68;;;;;;;;;;5061195;28;20243;-53
2023/06/17 02:38:15;;;;;;;7.65;7.00;;;;;;;;;;5065148;28;20534;-53
2023/06/17 02:40:42;;;;;;;7.10;6.47;;;;;;;;;;5065735;28;20717;-53
2023/06/17 02:43:08;;;;;;;7.95;6.70;;;;;;;;;;5065778;28;20231;-52
2023/06/17 02:45:35;;;;;;;7.32;6.63;;;;;;;;;;5063484;28;20241;-53
2023/06/17 02:48:02;;;;;;;8.38;7.55;;;;;;;;;;5062714;28;20239;-53
2023/06/17 02:50:30;;;;;;;9.30;7.35;;;;;;;;;;5065580;28;20754;-52
2023/06/17 02:52:56;;;;;;;8.68;7.97;;;;;;;;;;5063908;28;20855;-53
2023/06/17 02:55:22;;;;;;;7.55;6.85;;;;;;;;;;5065898;28;20235;-54
2023/06/17 02:57:49;;;;;;;15.65;6.28;;;;;;;;;;5062576;28;20258;-54
2023/06/17 03:00:16;;;;;;;8.30;7.50;;;;;;;;;;5061619;28;20310;-54
2023/06/17 03:02:43;;;;;;;7.97;6.93;;;;;;;;;;5063279;28;20227;-54
2023/06/17 03:05:09;;;;;;;8.88;8.07;;;;;;;;;;5065417;28;20777;-54
2023/06/17 03:07:40;;;;;;;8.23;7.45;;;;;;;;;;5063510;28;20243;-54
2023/06/17 03:10:07;;;;;;;7.68;7.07;;;;;;;;;;5070204;28;20226;-53
2023/06/17 03:12:33;;;;;;;7.95;7.15;;;;;;;;;;5062865;28;20377;-54
2023/06/17 03:15:00;;;;;;;7.57;6.88;;;;;;;;;;5060682;28;20236;-54
2023/06/17 03:17:27;;;;;;;8.57;7.78;;;;;;;;;;5065316;28;20294;-53
2023/06/17 03:19:53;;;;;;;8.30;7.45;;;;;;;;;;5070353;28;20317;-52
2023/06/17 03:22:20;;;;;;;7.20;6.47;;;;;;;;;;5068474;28;20306;-52
2023/06/17 03:24:48;;;;;;;8.25;7.57;;;;;;;;;;5069343;28;20307;-52
2023/06/17 03:27:14;;;;;;;8.25;7.50;;;;;;;;;;5068984;28;20235;-52
2023/06/17 03:29:41;;;;;;;8.57;7.80;;;;;;;;;;5073950;28;20276;-52
2023/06/17 03:32:08;;;;;;;7.97;7.32;;;;;;;;;;5064587;28;20314;-53
2023/06/17 03:34:34;;;;;;;8.40;7.70;;;;;;;;;;5069656;28;20306;-52
2023/06/17 03:37:00;;;;;;;8.93;8.23;;;;;;;;;;5066548;28;20243;-52
2023/06/17 03:39:27;;;;;;;10.32;8.15;;;;;;;;;;5066359;28;20315;-53
2023/06/17 03:41:55;;;;;;;8.07;7.38;;;;;;;;;;5067887;28;20235;-53
2023/06/17 03:44:21;;;;;;;9.18;8.38;;;;;;;;;;5067876;28;20227;-53
2023/06/17 03:46:47;;;;;;;9.48;8.57;;;;;;;;;;5057546;28;20314;-52
2023/06/17 03:49:14;;;;;;;11.18;8.70;;;;;;;;;;5066136;28;20323;-53
2023/06/17 03:51:40;;;;;;;9.02;8.23;;;;;;;;;;5064633;28;20238;-53
2023/06/17 03:54:06;;;;;;;10.27;9.30;;;;;;;;;;5064496;28;20314;-52
2023/06/17 03:56:33;;;;;;;10.13;9.10;;;;;;;;;;5068572;28;20262;-53
2023/06/17 03:59:01;;;;;;;9.75;8.85;;;;;;;;;;5066648;28;20665;-54
2023/06/17 04:01:27;;;;;;;10.00;8.07;;;;;;;;;;5062596;28;20235;-54
2023/06/17 04:03:54;;;;;;;9.23;8.32;;;;;;;;;;5065671;28;20227;-53
2023/06/17 04:06:20;;;;;;;9.80;8.80;;;;;;;;;;5051483;28;20227;-54
2023/06/17 04:08:47;;;;;;;9.52;8.63;;;;;;;;;;5065670;28;20238;-53
2023/06/17 04:11:13;;;;;;;9.95;9.13;;;;;;;;;;5063025;28;20250;-53
2023/06/17 04:13:40;;;;;;;10.02;9.05;;;;;;;;;;5058929;28;20873;-52
2023/06/17 04:16:08;;;;;;;10.85;9.85;;;;;;;;;;5069415;28;20279;-53
2023/06/17 04:18:34;;;;;;;9.40;8.50;;;;;;;;;;5064582;28;20243;-52
2023/06/17 04:21:01;;;;;;;10.27;9.40;;;;;;;;;;5067236;28;20247;-53
2023/06/17 04:23:28;;;;;;;11.48;8.68;;;;;;;;;;5060297;28;20293;-53
2023/06/17 04:25:56;;;;;;;10.30;9.40;;;;;;;;;;5064183;28;20230;-53
2023/06/17 04:28:23;;;;;;;10.73;9.75;;;;;;;;;;5063109;28;20318;-53
2023/06/17 04:30:51;;;;;;;10.10;9.13;;;;;;;;;;5059277;28;20235;-54
2023/06/17 04:33:19;;;;;;;10.60;9.60;;;;;;;;;;5065022;28;20242;-54
2023/06/17 04:35:47;;;;;;;10.00;9.13;;;;;;;;;;5063880;28;20238;-53
2023/06/17 04:38:13;;;;;;;10.90;9.80;;;;;;;;;;5053188;28;20223;-54
2023/06/17 04:40:39;;;;;;;11.18;10.10;;;;;;;;;;5060099;28;20227;-53
2023/06/17 04:43:06;;;;;;;11.32;10.32;;;;;;;;;;5063454;28;20934;-54
2023/06/17 04:45:33;;;;;;;11.38;10.38;;;;;;;;;;5058274;28;20250;-53
2023/06/17 04:48:03;;;;;;;10.13;9.15;;;;;;;;;;5062782;28;20326;-53
2023/06/17 04:50:31;;;;;;;11.23;10.00;;;;;;;;;;5063698;28;20297;-53
2023/06/17 04:53:03;;;;;;;11.60;10.60;;;;;;;;;;5065908;28;20231;-52
2023/06/17 04:55:30;;;;;;;10.98;9.98;;;;;;;;;;5059060;28;20239;-53
2023/06/17 04:57:56;;;;;;;11.25;10.27;;;;;;;;;;5062870;28;20258;-53
2023/06/17 05:00:23;;;;;;;12.20;11.02;;;;;;;;;;5062883;28;20238;-54
2023/06/17 05:02:50;;;;;;;13.63;12.32;;;;;;;;;;5053399;28;20239;-54
2023/06/17 05:05:16;;;;;;;12.05;10.95;;;;;;;;;;5063044;28;20226;-53
2023/06/17 05:07:44;;;;;;;15.15;13.82;;;;;;;;;;5074178;28;20356;-54
2023/06/17 05:10:10;;;;;;;14.52;13.18;;;;;;;;;;5078014;28;20231;-55
2023/06/17 05:12:37;;;;;;;14.27;12.80;;;;;;;;;;5075456;28;20294;-53
2023/06/17 05:15:03;;;;;;;15.63;14.15;;;;;;;;;;5082774;28;20299;-55
2023/06/17 05:17:30;;;;;;;17.02;14.38;;;;;;;;;;5070366;28;20854;-53
2023/06/17 05:19:56;;;;;;;16.10;14.50;;;;;;;;;;5065352;28;20223;-55
2023/06/17 05:22:22;;;;;;;13.35;12.07;;;;;;;;;;5066631;28;20231;-53
2023/06/17 05:24:50;;;;;;;14.30;12.88;;;;;;;;;;5063365;28;20576;-53
2023/06/17 05:27:17;;;;;;;15.18;13.68;;;;;;;;;;5067118;28;20227;-53
2023/06/17 05:29:43;;;;;;;15.82;13.98;;;;;;;;;;5066615;28;20251;-56
2023/06/17 05:32:10;;;;;;;14.20;12.80;;;;;;;;;;5066393;28;20231;-53
2023/06/17 05:34:36;;;;;;;13.15;11.95;;;;;;;;;;5065615;28;20717;-54
2023/06/17 05:37:02;;;;;;;15.07;12.80;;;;;;;;;;5068613;28;20235;-53
2023/06/17 05:39:29;;;;;;;12.98;11.65;;;;;;;;;;5065276;28;20717;-54
2023/06/17 05:41:57;;;;;;;13.75;12.32;;;;;;;;;;5068511;28;20261;-54
2023/06/17 05:44:23;;;;;;;15.25;12.70;;;;;;;;;;5068065;28;20230;-53
2023/06/17 05:46:49;;;;;;;12.43;11.13;;;;;;;;;;5067228;28;20598;-54
2023/06/17 05:49:16;;;;;;;14.50;13.00;;;;;;;;;;5073825;28;20227;-54
2023/06/17 05:51:42;;;;;;;12.20;11.00;;;;;;;;;;5076985;28;20241;-55
2023/06/17 05:54:09;;;;;;;12.18;11.07;;;;;;;;;;5076739;28;20231;-54
2023/06/17 05:56:35;;;;;;;10.68;9.70;;;;;;;;;;5080359;28;20254;-54
2023/06/17 05:59:03;;;;;;;13.98;12.57;;;;;;;;;;5069714;28;20236;-54
2023/06/17 06:01:29;;;;;;;12.32;11.23;;;;;;;;;;5064550;28;20306;-54
2023/06/17 06:03:56;;;;;;;14.27;12.98;;;;;;;;;;5071567;28;20349;-54
2023/06/17 06:06:22;;;;;;;12.25;11.18;;;;;;;;;;5069119;28;20321;-54
2023/06/17 06:08:48;;;;;;;14.27;12.88;;;;;;;;;;5067109;28;20715;-54
2023/06/17 06:11:15;;;;;;;11.68;10.63;;;;;;;;;;5066748;28;20300;-54
2023/06/17 06:13:41;;;;;;;13.35;12.13;;;;;;;;;;5067904;28;20239;-54
2023/06/17 06:16:09;;;;;;;12.35;11.10;;;;;;;;;;5063329;28;20223;-54
2023/06/17 06:18:35;;;;;;;13.93;12.63;;;;;;;;;;5064052;28;20242;-54
2023/06/17 06:21:02;;;;;;;13.73;12.32;;;;;;;;;;5067679;28;25071;-54
2023/06/17 06:23:28;;;;;;;13.75;12.45;;;;;;;;;;5058088;28;20231;-53
2023/06/17 06:25:55;;;;;;;13.48;12.27;;;;;;;;;;5060934;28;20816;-54
2023/06/17 06:28:21;;;;;;;12.05;11.05;;;;;;;;;;5062301;28;20322;-54
2023/06/17 06:30:48;;;;;;;13.32;12.15;;;;;;;;;;5059163;28;20281;-54
2023/06/17 06:33:15;;;;;;;13.00;11.77;;;;;;;;;;5061576;28;20238;-55
2023/06/17 06:35:43;;;;;;;12.90;11.75;;;;;;;;;;5061837;28;20427;-53
2023/06/17 06:38:09;;;;;;;13.10;12.00;;;;;;;;;;5065950;28;20243;-54
2023/06/17 06:40:35;;;;;;;13.98;12.77;;;;;;;;;;5065776;28;20327;-54
2023/06/17 06:43:02;;;;;;;14.30;13.00;;;;;;;;;;5066092;28;20722;-53
2023/06/17 06:45:28;;;;;;;11.40;10.30;;;;;;;;;;5062928;28;20314;-53
2023/06/17 06:47:55;;;;;;;14.02;12.75;;;;;;;;;;5064595;28;20287;-54
2023/06/17 06:50:22;;;;;;;12.80;11.57;;;;;;;;;;5059339;28;20326;-53
2023/06/17 06:52:49;;;;;;;13.35;12.02;;;;;;;;;;5066435;28;20599;-53
2023/06/17 06:55:15;;;;;;;13.27;12.18;;;;;;;;;;5066506;28;20234;-54
2023/06/17 06:57:42;;;;;;;13.00;11.68;;;;;;;;;;5067980;28;20330;-55
2023/06/17 07:00:09;;;;;;;13.30;12.00;;;;;;;;;;5062599;28;20241;-54
2023/06/17 07:02:36;;;;;;;15.10;13.70;;;;;;;;;;5062880;28;20315;-53
2023/06/17 07:05:03;;;;;;;14.85;12.90;;;;;;;;;;5065010;28;20230;-55
2023/06/17 07:07:31;;;;;;;15.40;13.90;;;;;;;;;;5055906;28;20231;-53
2023/06/17 07:09:58;;;;;;;13.98;12.77;;;;;;;;;;5066945;28;20231;-53
2023/06/17 07:12:24;;;;;;;12.80;11.70;;;;;;;;;;5046543;28;20314;-54
2023/06/17 07:14:50;;;;;;;15.10;13.70;;;;;;;;;;5063651;28;20234;-54
2023/06/17 07:17:17;;;;;;;14.80;13.50;;;;;;;;;;5067247;28;21044;-54
2023/06/17 07:19:43;;;;;;;17.70;16.00;;;;;;;;;;5065153;28;20312;-53
2023/06/17 07:22:10;;;;;;;14.80;13.40;;;;;;;;;;5057584;28;20239;-54
2023/06/17 07:24:38;;;;;;;13.32;12.13;;;;;;;;;;5064577;28;20238;-53
2023/06/17 07:27:04;;;;;;;12.93;11.82;;;;;;;;;;5064635;28;20738;-53
2023/06/17 07:29:31;;;;;;;15.70;13.63;;;;;;;;;;5062723;28;20251;-53
2023/06/17 07:31:57;;;;;;;14.98;13.73;;;;;;;;;;5055947;28;20228;-52
2023/06/17 07:34:24;;;;;;;13.95;12.77;;;;;;;;;;5060970;28;20278;-54
2023/06/17 07:36:52;;;;;;;15.02;13.65;;;;;;;;;;5061560;28;20638;-54
2023/06/17 07:39:19;;;;;;;13.85;12.57;;;;;;;;;;5067276;28;20235;-54
2023/06/17 07:41:46;;;;;;;13.00;11.80;;;;;;;;;;5067168;28;20235;-54
2023/06/17 07:44:13;;;;;;;14.57;12.85;;;;;;;;;;5066777;28;20253;-55
2023/06/17 07:46:39;;;;;;;14.05;12.75;;;;;;;;;;5064438;28;20296;-53
2023/06/17 07:49:05;;;;;;;12.25;11.05;;;;;;;;;;5067960;28;20242;-56
2023/06/17 07:51:32;;;;;;;12.85;11.65;;;;;;;;;;5059783;28;20286;-54
2023/06/17 07:53:58;;;;;;;13.32;12.05;;;;;;;;;;5073163;28;20230;-55
2023/06/17 07:56:27;;;;;;;14.25;12.95;;;;;;;;;;5077867;28;20314;-54
2023/06/17 07:58:55;;;;;;;13.95;12.52;;;;;;;;;;5061827;28;20253;-54
2023/06/17 08:01:22;;;;;;;12.50;11.50;;;;;;;;;;5066519;28;20234;-55
2023/06/17 08:03:48;;;;;;;15.15;13.68;;;;;;;;;;5064686;28;20304;-54
2023/06/17 08:06:15;;;;;;;13.00;11.73;;;;;;;;;;5065934;28;20246;-55
2023/06/17 08:08:41;;;;;;;15.45;14.05;;;;;;;;;;5052562;28;20597;-53
2023/06/17 08:11:08;;;;;;;13.82;12.52;;;;;;;;;;5055878;28;20227;-54
2023/06/17 08:13:34;;;;;;;14.35;12.35;;;;;;;;;;5063587;28;20243;-54
2023/06/17 08:16:02;;;;;;;13.82;12.45;;;;;;;;;;5065316;28;20235;-54
2023/06/17 08:18:28;;;;;;;13.93;12.48;;;;;;;;;;5065398;28;20269;-54
2023/06/17 08:20:55;;;;;;;13.30;11.93;;;;;;;;;;5066042;28;20262;-53
2023/06/17 08:23:21;;;;;;;13.35;12.25;;;;;;;;;;5064425;28;20234;-55
2023/06/17 08:25:49;;;;;;;14.93;13.50;;;;;;;;;;5063274;28;20234;-53
2023/06/17 08:28:15;;;;;;;14.48;13.18;;;;;;;;;;5064718;28;20250;-52
2023/06/17 08:30:42;;;;;;;14.38;12.85;;;;;;;;;;5063604;28;20239;-54
2023/06/17 08:33:09;;;;;;;12.65;11.35;;;;;;;;;;5065221;28;20796;-54
2023/06/17 08:35:36;;;;;;;14.18;12.82;;;;;;;;;;5065712;28;20242;-53
2023/06/17 08:38:03;;;;;;;12.18;11.07;;;;;;;;;;5065095;28;20631;-53
2023/06/17 08:40:30;;;;;;;16.00;14.50;;;;;;;;;;5064891;28;20231;-53
2023/06/17 08:43:00;;;;;;;14.52;12.82;;;;;;;;;;5063149;28;20254;-53
2023/06/17 08:45:26;;;;;;;15.25;14.00;;;;;;;;;;5058803;28;20314;-53
2023/06/17 08:47:53;;;;;;;14.77;13.45;;;;;;;;;;5076184;28;20237;-54
2023/06/17 08:50:21;;;;;;;14.27;12.80;;;;;;;;;;5066851;28;20237;-54
2023/06/17 08:52:48;;;;;;;13.65;11.80;;;;;;;;;;5066416;28;20243;-53
2023/06/17 08:55:14;;;;;;;14.15;12.65;;;;;;;;;;5070410;28;20261;-53
2023/06/17 08:57:41;;;;;;;12.73;11.63;;;;;;;;;;5059349;28;20233;-54
2023/06/17 09:00:10;;;;;;;13.15;11.98;;;;;;;;;;5063115;28;20285;-53
2023/06/17 09:02:37;;;;;;;12.88;11.65;;;;;;;;;;5069306;28;20241;-53
2023/06/17 09:05:04;;;;;;;11.65;10.65;;;;;;;;;;5061886;28;20249;-53
2023/06/17 09:07:32;;;;;;;13.02;11.82;;;;;;;;;;5062111;28;20320;-53
2023/06/17 09:10:04;;;;;;;14.55;13.15;;;;;;;;;;5065615;28;20227;-52
2023/06/17 09:12:36;;;;;;;12.55;11.35;;;;;;;;;;5059539;28;20326;-53
2023/06/17 09:15:02;;;;;;;12.98;11.82;;;;;;;;;;5064094;28;20292;-53
2023/06/17 09:17:30;;;;;;;13.43;11.57;;;;;;;;;;5068167;28;20234;-53
2023/06/17 09:19:57;;;;;;;11.73;10.73;;;;;;;;;;5064583;28;20228;-54
2023/06/17 09:22:25;;;;;;;11.95;10.75;;;;;;;;;;5066411;28;20237;-54
2023/06/17 09:24:57;;;;;;;11.55;10.43;;;;;;;;;;5066806;28;20747;-53
2023/06/17 09:27:25;;;;;;;11.23;10.15;;;;;;;;;;5066948;28;20241;-53
2023/06/17 09:30:05;;;;;;;13.50;10.55;;;;;;;;;;5068624;28;20269;-53
2023/06/17 09:32:38;;;;;;;12.50;11.25;;;;;;;;;;5067129;28;20226;-53
2023/06/17 09:35:05;;;;;;;11.80;9.82;;;;;;;;;;5069324;28;20822;-53
2023/06/17 09:37:31;;;;;;;14.57;11.50;;;;;;;;;;5072477;28;20431;-53
2023/06/17 09:40:01;;;;;;;10.18;9.27;;;;;;;;;;5072077;28;20245;-53
2023/06/17 09:42:30;;;;;;;11.00;9.98;;;;;;;;;;5068959;28;20225;-52
2023/06/17 09:45:03;;;;;;;11.38;10.20;;;;;;;;;;5065227;28;20277;-54
2023/06/17 09:47:32;;;;;;;11.23;10.18;;;;;;;;;;5063661;28;20238;-53
2023/06/17 09:50:02;;;;;;;11.65;10.63;;;;;;;;;;5065548;28;20235;-54
2023/06/17 09:52:29;;;;;;;10.75;9.93;;;;;;;;;;5069290;28;20643;-54
2023/06/17 09:54:56;;;;;;;14.20;11.90;;;;;;;;;;5063115;28;20301;-54
2023/06/17 09:57:26;;;;;;;10.68;9.57;;;;;;;;;;5065145;28;20730;-54
2023/06/17 09:59:55;;;;;;;9.98;9.18;;;;;;;;;;5061292;28;20316;-54
2023/06/17 10:02:21;;;;;;;14.38;12.32;;;;;;;;;;5062107;28;20299;-54
2023/06/17 10:04:47;;;;;;;12.68;11.57;;;;;;;;;;5063126;28;20230;-54
2023/06/17 10:07:15;;;;;;;10.32;9.48;;;;;;;;;;5064192;28;20235;-56
2023/06/17 10:09:41;;;;;;;11.90;10.90;;;;;;;;;;5064186;28;20259;-53
2023/06/17 10:12:10;;;;;;;11.80;10.80;;;;;;;;;;5056520;28;20710;-58
2023/06/17 10:14:38;;;;;;;12.48;11.13;;;;;;;;;;5064825;28;20235;-53
2023/06/17 10:17:06;;;;;;;9.82;9.10;;;;;;;;;;5064251;28;20226;-53
2023/06/17 10:19:35;;;;;;;11.73;10.63;;;;;;;;;;5065478;28;20243;-53
2023/06/17 10:22:03;;;;;;;11.07;10.27;;;;;;;;;;5064880;28;21265;-53
2023/06/17 10:24:29;;;;;;;14.32;13.13;;;;;;;;;;5064750;28;20235;-53
2023/06/17 10:27:02;;;;;;;12.45;11.35;;;;;;;;;;5060537;28;20233;-53
2023/06/17 10:29:29;;;;;;;11.93;10.93;;;;;;;;;;5061018;28;20223;-53
2023/06/17 10:31:56;;;;;;;12.10;11.10;;;;;;;;;;5064039;28;20241;-53
2023/06/17 10:34:23;;;;;;;10.00;9.13;;;;;;;;;;5061340;28;20325;-54
2023/06/17 10:36:51;;;;;;;12.75;11.65;;;;;;;;;;5065233;28;20235;-53
2023/06/17 10:39:17;;;;;;;11.65;10.63;;;;;;;;;;5061514;28;20254;-56
2023/06/17 10:41:52;;;;;;;11.15;10.23;;;;;;;;;;5064229;28;20310;-53
2023/06/17 10:44:25;;;;;;;10.93;9.82;;;;;;;;;;5062595;28;20230;-53
2023/06/17 10:46:51;;;;;;;9.95;8.95;;;;;;;;;;5060209;28;20223;-53
2023/06/17 10:49:19;;;;;;;11.60;10.45;;;;;;;;;;5063720;28;20241;-53
2023/06/17 10:51:46;;;;;;;10.52;9.52;;;;;;;;;;5064182;28;20788;-53
2023/06/17 10:54:12;;;;;;;11.43;10.32;;;;;;;;;;5063747;28;20341;-53
2023/06/17 10:56:46;;;;;;;10.48;9.68;;;;;;;;;;5060579;28;20253;-53
2023/06/17 10:59:13;;;;;;;15.95;9.63;;;;;;;;;;5065349;28;20238;-53
2023/06/17 11:01:40;;;;;;;8.90;8.10;;;;;;;;;;5063941;28;20326;-53
2023/06/17 11:04:08;;;;;;;9.75;8.85;;;;;;;;;;5062916;28;20238;-53
2023/06/17 11:06:36;;;;;;;10.00;8.60;;;;;;;;;;5061215;28;20234;-53
2023/06/17 11:09:04;;;;;;;9.88;8.77;;;;;;;;;;5058632;28;20238;-53
2023/06/17 11:11:31;;;;;;;24.13;9.60;;;;;;;;;;5057305;28;20640;-54
2023/06/17 11:13:58;;;;;;;33.67;12.90;;;;;;;;;;5065261;28;20282;-54
2023/06/17 11:16:25;;;;;;;10.27;8.75;;;;;;;;;;5064529;28;20799;-54
2023/06/17 11:18:51;;;;;;;9.98;8.20;;;;;;;;;;5064901;28;20238;-54
2023/06/17 11:21:18;;;;;;;8.98;8.27;;;;;;;;;;5060580;28;20656;-54
2023/06/17 11:23:46;;;;;;;10.10;8.98;;;;;;;;;;5064645;28;20885;-53
2023/06/17 11:26:13;;;;;;;12.48;9.63;;;;;;;;;;5067623;28;20372;-53
2023/06/17 11:28:40;;;;;;;9.77;8.77;;;;;;;;;;5065431;28;20241;-53
2023/06/17 11:31:07;;;;;;;10.68;9.57;;;;;;;;;;5064184;28;20223;-52
2023/06/17 11:33:35;;;;;;;8.25;7.55;;;;;;;;;;5064792;28;20250;-52
2023/06/17 11:36:03;;;;;;;9.50;7.85;;;;;;;;;;5056445;28;20310;-52
2023/06/17 11:38:30;;;;;;;8.32;7.65;;;;;;;;;;5058414;28;20253;-53
2023/06/17 11:40:58;;;;;;;8.93;8.13;;;;;;;;;;5067337;28;20661;-52
2023/06/17 11:43:26;;;;;;;6.78;6.28;;;;;;;;;;5055239;28;20239;-50
2023/06/17 11:45:54;;;;;;;6.80;6.20;;;;;;;;;;5057542;28;20238;-52
2023/06/17 11:48:26;;;;;;;4.95;4.40;;;;;;;;;;5059198;28;20231;-52
2023/06/17 11:50:54;;;;;;;5.60;5.03;;;;;;;;;;5059506;28;20264;-52
2023/06/17 11:53:28;;;;;;;5.20;4.70;;;;;;;;;;5066027;28;20317;-52
2023/06/17 11:55:54;;;;;;;7.10;5.25;;;;;;;;;;5062658;28;20231;-52
2023/06/17 11:58:25;;;;;;;11.25;4.82;;;;;;;;;;5068910;28;20230;-52
2023/06/17 12:00:51;;;;;;;9.75;5.40;;;;;;;;;;5068572;28;20251;-51
2023/06/17 12:03:18;;;;;;;7.85;4.97;;;;;;;;;;5068043;28;20291;-53
2023/06/17 12:05:45;;;;;;;9.20;4.32;;;;;;;;;;5058139;28;20316;-53
2023/06/17 12:08:11;;;;;;;16.70;6.32;;;;;;;;;;5068003;28;20235;-53
2023/06/17 12:10:38;;;;;;;8.57;4.78;;;;;;;;;;5059486;28;20238;-52
2023/06/17 12:13:05;;;;;;;11.10;5.90;;;;;;;;;;5064471;28;20243;-53
2023/06/17 12:15:33;;;;;;;6.00;5.47;;;;;;;;;;5066313;28;20231;-52
2023/06/17 12:18:09;;;;;;;8.43;5.80;;;;;;;;;;5066538;28;20231;-53
2023/06/17 12:20:36;;;;;;;6.63;6.03;;;;;;;;;;5056124;28;20315;-52
2023/06/17 12:23:03;;;;;;;7.03;5.72;;;;;;;;;;5061393;28;20341;-52
2023/06/17 12:25:32;;;;;;;8.80;5.95;;;;;;;;;;5059411;28;20326;-51
2023/06/17 12:27:59;;;;;;;6.40;5.80;;;;;;;;;;5059684;28;20251;-53
2023/06/17 12:30:25;;;;;;;6.93;6.30;;;;;;;;;;5064430;28;20304;-53
2023/06/17 12:32:53;;;;;;;7.25;6.53;;;;;;;;;;5065085;28;20314;-53
2023/06/17 12:35:22;;;;;;;7.93;7.22;;;;;;;;;;5069860;28;20288;-53
2023/06/17 12:37:51;;;;;;;7.65;6.97;;;;;;;;;;5062555;28;20254;-54
2023/06/17 12:40:18;;;;;;;10.93;7.65;;;;;;;;;;5061285;28;20253;-53
2023/06/17 12:42:44;;;;;;;7.78;6.97;;;;;;;;;;5065908;28;20235;-52
2023/06/17 12:45:12;;;;;;;5.70;5.30;;;;;;;;;;5059821;28;20652;-53
2023/06/17 12:47:39;;;;;;;9.68;7.03;;;;;;;;;;5059431;28;20238;-52
2023/06/17 12:50:07;;;;;;;20.35;9.15;;;;;;;;;;5063497;28;20247;-52
2023/06/17 12:52:34;;;;;;;17.42;7.70;;;;;;;;;;5060484;28;20235;-52
2023/06/17 12:55:01;;;;;;;11.70;6.75;;;;;;;;;;5068701;28;20795;-52
2023/06/17 12:57:28;;;;;;;8.00;6.13;;;;;;;;;;5068397;28;20280;-53
2023/06/17 12:59:54;;;;;;;7.05;5.30;;;;;;;;;;5068628;28;20880;-52
2023/06/17 13:02:24;;;;;;;7.10;5.75;;;;;;;;;;5063759;28;20239;-52
2023/06/17 13:04:50;;;;;;;6.32;5.47;;;;;;;;;;5059664;28;20324;-52
2023/06/17 13:07:19;;;;;;;5.75;5.22;;;;;;;;;;5063305;28;20230;-53
2023/06/17 13:09:46;;;;;;;5.97;5.03;;;;;;;;;;5061277;28;20244;-53
2023/06/17 13:12:13;;;;;;;7.32;4.68;;;;;;;;;;5062118;28;20712;-54
2023/06/17 13:14:40;;;;;;;6.70;5.65;;;;;;;;;;5061482;28;20779;-52
2023/06/17 13:17:07;;;;;;;8.25;4.78;;;;;;;;;;5063707;28;20314;-52
2023/06/17 13:19:33;;;;;;;4.97;4.57;;;;;;;;;;5058790;28;20263;-52
2023/06/17 13:21:59;;;;;;;5.80;4.90;;;;;;;;;;5063466;28;20239;-53
2023/06/17 13:24:27;;;;;;;5.15;4.70;;;;;;;;;;5063550;28;20839;-52
2023/06/17 13:26:54;;;;;;;5.40;5.00;;;;;;;;;;5063169;28;20247;-53
2023/06/17 13:29:22;;;;;;;5.22;4.80;;;;;;;;;;5065841;28;20288;-53
2023/06/17 13:31:49;;;;;;;5.75;5.32;;;;;;;;;;5064549;28;20239;-53
2023/06/17 13:34:15;;;;;;;5.20;4.80;;;;;;;;;;5061105;28;20231;-53
2023/06/17 13:36:45;;;;;;;5.80;5.30;;;;;;;;;;5062804;28;20696;-53
2023/06/17 13:39:11;;;;;;;5.53;5.13;;;;;;;;;;5060301;28;20300;-52
2023/06/17 13:41:39;;;;;;;5.78;5.38;;;;;;;;;;5067418;28;20231;-53
2023/06/17 13:44:07;;;;;;;6.53;6.03;;;;;;;;;;5063280;28;20227;-54
2023/06/17 13:46:34;;;;;;;6.53;5.60;;;;;;;;;;5067452;28;20228;-52
2023/06/17 13:49:00;;;;;;;6.75;6.25;;;;;;;;;;5066651;27;20243;-54
2023/06/17 13:51:27;;;;;;;6.45;5.85;;;;;;;;;;5067631;28;20707;-53
2023/06/17 13:53:53;;;;;;;6.55;5.95;;;;;;;;;;5066568;28;20232;-52
2023/06/17 13:56:19;;;;;;;7.57;6.88;;;;;;;;;;5068653;28;20317;-53
2023/06/17 13:58:48;;;;;;;6.82;6.25;;;;;;;;;;5065213;28;20234;-52
2023/06/17 14:01:14;;;;;;;7.68;7.03;;;;;;;;;;5068393;28;20712;-52
2023/06/17 14:03:40;;;;;;;7.85;7.25;;;;;;;;;;5067496;28;20287;-54
2023/06/17 14:06:07;;;;;;;6.47;5.97;;;;;;;;;;5074477;28;20739;-52
2023/06/17 14:08:33;;;;;;;7.13;6.50;;;;;;;;;;5067596;28;20318;-53
2023/06/17 14:11:00;;;;;;;6.25;5.75;;;;;;;;;;5069890;28;20226;-52
2023/06/17 14:13:26;;;;;;;6.57;5.95;;;;;;;;;;5064209;28;20617;-52
2023/06/17 14:15:54;;;;;;;6.40;5.97;;;;;;;;;;5067394;28;20259;-51
2023/06/17 14:18:20;;;;;;;6.00;5.45;;;;;;;;;;5066257;28;20292;-53
2023/06/17 14:20:47;;;;;;;5.43;5.03;;;;;;;;;;5066768;28;20235;-53
2023/06/17 14:23:14;;;;;;;5.40;5.00;;;;;;;;;;5067205;28;20232;-53
2023/06/17 14:25:40;;;;;;;4.68;4.28;;;;;;;;;;5064625;28;20239;-55
2023/06/17 14:28:07;;;;;;;5.25;4.65;;;;;;;;;;5067757;28;20232;-54
2023/06/17 14:30:33;;;;;;;4.88;4.47;;;;;;;;;;5062637;28;20245;-53